sensor_id;sensor_type;location;lat;lon;timestamp;temperature;humidity
31369;DHT22;18004;48.416;10.066;2023-09-19T00:00:38;16.30;99.90
31369;DHT22;18004;48.416;10.066;2023-09-19T00:03:06;16.30;99.90
31369;DHT22;18004;48.416;10.066;2023-09-19T00:05:35;16.30;99.90
31369;DHT22;18004;48.416;10.066;2023-09-19T00:08:02;16.40;99.90
31369;DHT22;18004;48.416;10.066;2023-09-19T00:10:32;16.30;99.90
31369;DHT22;18004;48.416;10.066;2023-09-19T00:13:03;16.40;99.90
31369;DHT22;18004;48.416;10.066;2023-09-19T00:15:38;16.40;99.90
31369;DHT22;18004;48.416;10.066;2023-09-19T00:18:05;16.40;99.90
31369;DHT22;18004;48.416;10.066;2023-09-19T00:20:32;16.40;99.90
31369;DHT22;18004;48.416;10.066;2023-09-19T00:22:58;16.30;99.90
31369;DHT22;18004;48.416;10.066;2023-09-19T00:25:31;16.30;99.90
31369;DHT22;18004;48.416;10.066;2023-09-19T00:28:01;16.30;99.90
31369;DHT22;18004;48.416;10.066;2023-09-19T00:30:27;16.30;99.90
31369;DHT22;18004;48.416;10.066;2023-09-19T00:32:53;16.30;99.90
31369;DHT22;18004;48.416;10.066;2023-09-19T00:35:18;16.30;99.90
31369;DHT22;18004;48.416;10.066;2023-09-19T00:37:44;16.20;99.90
31369;DHT22;18004;48.416;10.066;2023-09-19T00:40:11;16.20;99.90
31369;DHT22;18004;48.416;10.066;2023-09-19T00:42:41;16.10;99.90
31369;DHT22;18004;48.416;10.066;2023-09-19T00:45:08;16.10;99.90
31369;DHT22;18004;48.416;10.066;2023-09-19T00:47:51;16.10;99.90
31369;DHT22;18004;48.416;10.066;2023-09-19T00:50:18;16.10;99.90
31369;DHT22;18004;48.416;10.066;2023-09-19T00:52:46;16.10;99.90
31369;DHT22;18004;48.416;10.066;2023-09-19T00:55:12;16.10;99.90
31369;DHT22;18004;48.416;10.066;2023-09-19T00:57:40;16.10;99.90
31369;DHT22;18004;48.416;10.066;2023-09-19T01:00:07;16.00;99.90
31369;DHT22;18004;48.416;10.066;2023-09-19T01:02:34;16.10;99.90
31369;DHT22;18004;48.416;10.066;2023-09-19T01:05:01;16.00;99.90
31369;DHT22;18004;48.416;10.066;2023-09-19T01:07:31;16.10;99.90
31369;DHT22;18004;48.416;10.066;2023-09-19T01:09:58;16.00;99.90
31369;DHT22;18004;48.416;10.066;2023-09-19T01:12:45;16.10;99.90
31369;DHT22;18004;48.416;10.066;2023-09-19T01:18:16;16.10;99.90
31369;DHT22;18004;48.416;10.066;2023-09-19T01:23:28;16.10;99.90
31369;DHT22;18004;48.416;10.066;2023-09-19T01:31:40;16.10;99.90
31369;DHT22;18004;48.416;10.066;2023-09-19T01:34:07;16.10;99.90
31369;DHT22;18004;48.416;10.066;2023-09-19T01:36:36;16.00;99.90
31369;DHT22;18004;48.416;10.066;2023-09-19T01:39:13;16.00;99.90
31369;DHT22;18004;48.416;10.066;2023-09-19T01:42:35;16.00;99.90
31369;DHT22;18004;48.416;10.066;2023-09-19T01:44:51;16.00;99.90
31369;DHT22;18004;48.416;10.066;2023-09-19T01:47:37;16.10;99.90
31369;DHT22;18004;48.416;10.066;2023-09-19T01:52:46;16.00;99.90
31369;DHT22;18004;48.416;10.066;2023-09-19T01:55:14;16.00;99.90
31369;DHT22;18004;48.416;10.066;2023-09-19T01:57:49;16.00;99.90
31369;DHT22;18004;48.416;10.066;2023-09-19T02:00:19;15.90;99.90
31369;DHT22;18004;48.416;10.066;2023-09-19T02:02:47;15.90;99.90
31369;DHT22;18004;48.416;10.066;2023-09-19T02:05:22;16.00;99.90
31369;DHT22;18004;48.416;10.066;2023-09-19T02:07:49;16.00;99.90
31369;DHT22;18004;48.416;10.066;2023-09-19T02:10:15;16.00;99.90
31369;DHT22;18004;48.416;10.066;2023-09-19T02:12:42;16.00;99.90
31369;DHT22;18004;48.416;10.066;2023-09-19T02:15:08;16.00;99.90
31369;DHT22;18004;48.416;10.066;2023-09-19T02:17:34;16.00;99.90
31369;DHT22;18004;48.416;10.066;2023-09-19T02:20:00;16.00;99.90
31369;DHT22;18004;48.416;10.066;2023-09-19T02:22:26;16.00;99.90
31369;DHT22;18004;48.416;10.066;2023-09-19T02:24:53;16.00;99.90
31369;DHT22;18004;48.416;10.066;2023-09-19T02:27:19;15.90;99.90
31369;DHT22;18004;48.416;10.066;2023-09-19T02:29:45;16.00;99.90
31369;DHT22;18004;48.416;10.066;2023-09-19T02:32:11;16.00;99.90
31369;DHT22;18004;48.416;10.066;2023-09-19T02:34:36;16.00;99.90
31369;DHT22;18004;48.416;10.066;2023-09-19T02:37:05;16.00;99.90
31369;DHT22;18004;48.416;10.066;2023-09-19T02:39:31;16.10;99.90
31369;DHT22;18004;48.416;10.066;2023-09-19T02:41:57;16.10;99.90
31369;DHT22;18004;48.416;10.066;2023-09-19T02:44:23;16.00;99.90
31369;DHT22;18004;48.416;10.066;2023-09-19T02:46:50;16.00;99.90
31369;DHT22;18004;48.416;10.066;2023-09-19T02:49:16;16.00;99.90
31369;DHT22;18004;48.416;10.066;2023-09-19T02:51:43;16.00;99.90
31369;DHT22;18004;48.416;10.066;2023-09-19T02:54:09;16.00;99.90
31369;DHT22;18004;48.416;10.066;2023-09-19T02:56:36;16.00;99.90
31369;DHT22;18004;48.416;10.066;2023-09-19T02:59:03;15.90;99.90
31369;DHT22;18004;48.416;10.066;2023-09-19T03:01:29;16.00;99.90
31369;DHT22;18004;48.416;10.066;2023-09-19T03:03:55;16.00;99.90
31369;DHT22;18004;48.416;10.066;2023-09-19T03:06:21;16.00;99.90
31369;DHT22;18004;48.416;10.066;2023-09-19T03:08:47;16.00;99.90
31369;DHT22;18004;48.416;10.066;2023-09-19T03:11:15;16.10;99.90
31369;DHT22;18004;48.416;10.066;2023-09-19T03:13:44;16.00;99.90
31369;DHT22;18004;48.416;10.066;2023-09-19T03:16:11;16.00;99.90
31369;DHT22;18004;48.416;10.066;2023-09-19T03:18:40;16.00;99.90
31369;DHT22;18004;48.416;10.066;2023-09-19T03:21:06;16.00;99.90
31369;DHT22;18004;48.416;10.066;2023-09-19T03:23:31;16.10;99.90
31369;DHT22;18004;48.416;10.066;2023-09-19T03:25:57;16.00;99.90
31369;DHT22;18004;48.416;10.066;2023-09-19T03:28:24;16.00;99.90
31369;DHT22;18004;48.416;10.066;2023-09-19T03:31:03;16.00;99.90
31369;DHT22;18004;48.416;10.066;2023-09-19T03:33:29;16.00;99.90
31369;DHT22;18004;48.416;10.066;2023-09-19T03:35:57;16.00;99.90
31369;DHT22;18004;48.416;10.066;2023-09-19T03:38:27;16.00;99.90
31369;DHT22;18004;48.416;10.066;2023-09-19T03:40:54;16.00;99.90
31369;DHT22;18004;48.416;10.066;2023-09-19T03:43:20;16.00;99.90
31369;DHT22;18004;48.416;10.066;2023-09-19T03:45:46;16.00;99.90
31369;DHT22;18004;48.416;10.066;2023-09-19T03:48:16;15.90;99.90
31369;DHT22;18004;48.416;10.066;2023-09-19T03:50:42;15.90;99.90
31369;DHT22;18004;48.416;10.066;2023-09-19T03:53:09;15.90;99.90
31369;DHT22;18004;48.416;10.066;2023-09-19T03:55:35;15.90;99.90
31369;DHT22;18004;48.416;10.066;2023-09-19T03:58:03;15.80;99.90
31369;DHT22;18004;48.416;10.066;2023-09-19T04:00:29;15.80;99.90
31369;DHT22;18004;48.416;10.066;2023-09-19T04:02:55;15.80;99.90
31369;DHT22;18004;48.416;10.066;2023-09-19T04:05:25;15.80;99.90
31369;DHT22;18004;48.416;10.066;2023-09-19T04:07:51;15.70;99.90
31369;DHT22;18004;48.416;10.066;2023-09-19T04:10:17;15.70;99.90
31369;DHT22;18004;48.416;10.066;2023-09-19T04:12:56;15.70;99.90
31369;DHT22;18004;48.416;10.066;2023-09-19T04:15:22;15.70;99.90
31369;DHT22;18004;48.416;10.066;2023-09-19T04:17:49;15.60;99.90
31369;DHT22;18004;48.416;10.066;2023-09-19T04:20:16;15.60;99.90
31369;DHT22;18004;48.416;10.066;2023-09-19T04:22:43;15.60;99.90
31369;DHT22;18004;48.416;10.066;2023-09-19T04:25:09;15.70;99.90
31369;DHT22;18004;48.416;10.066;2023-09-19T04:27:35;15.70;99.90
31369;DHT22;18004;48.416;10.066;2023-09-19T04:30:01;15.70;99.90
31369;DHT22;18004;48.416;10.066;2023-09-19T04:32:29;15.70;99.90
31369;DHT22;18004;48.416;10.066;2023-09-19T04:34:55;15.70;99.90
31369;DHT22;18004;48.416;10.066;2023-09-19T04:37:26;15.70;99.90
31369;DHT22;18004;48.416;10.066;2023-09-19T04:39:51;15.70;99.90
31369;DHT22;18004;48.416;10.066;2023-09-19T04:42:17;15.70;99.90
31369;DHT22;18004;48.416;10.066;2023-09-19T04:44:43;15.70;99.90
31369;DHT22;18004;48.416;10.066;2023-09-19T04:47:09;15.70;99.90
31369;DHT22;18004;48.416;10.066;2023-09-19T04:49:34;15.70;99.90
31369;DHT22;18004;48.416;10.066;2023-09-19T04:52:00;15.70;99.90
31369;DHT22;18004;48.416;10.066;2023-09-19T04:54:26;15.70;99.90
31369;DHT22;18004;48.416;10.066;2023-09-19T04:56:52;15.70;99.90
31369;DHT22;18004;48.416;10.066;2023-09-19T04:59:18;15.70;99.90
31369;DHT22;18004;48.416;10.066;2023-09-19T05:01:44;15.70;99.90
31369;DHT22;18004;48.416;10.066;2023-09-19T05:04:10;15.80;99.90
31369;DHT22;18004;48.416;10.066;2023-09-19T05:06:36;15.80;99.90
31369;DHT22;18004;48.416;10.066;2023-09-19T05:09:01;15.80;99.90
31369;DHT22;18004;48.416;10.066;2023-09-19T05:11:30;15.80;99.90
31369;DHT22;18004;48.416;10.066;2023-09-19T05:13:56;15.80;99.90
31369;DHT22;18004;48.416;10.066;2023-09-19T05:16:22;15.90;99.90
31369;DHT22;18004;48.416;10.066;2023-09-19T05:18:47;15.90;99.90
31369;DHT22;18004;48.416;10.066;2023-09-19T05:21:15;15.90;99.90
31369;DHT22;18004;48.416;10.066;2023-09-19T05:23:40;15.80;99.90
31369;DHT22;18004;48.416;10.066;2023-09-19T05:26:07;15.80;99.90
31369;DHT22;18004;48.416;10.066;2023-09-19T05:28:33;15.90;99.90
31369;DHT22;18004;48.416;10.066;2023-09-19T05:31:03;15.80;99.90
31369;DHT22;18004;48.416;10.066;2023-09-19T05:33:29;15.80;99.90
31369;DHT22;18004;48.416;10.066;2023-09-19T05:35:56;15.80;99.90
31369;DHT22;18004;48.416;10.066;2023-09-19T05:38:22;15.80;99.90
31369;DHT22;18004;48.416;10.066;2023-09-19T05:40:48;15.80;99.90
31369;DHT22;18004;48.416;10.066;2023-09-19T05:43:14;15.80;99.90
31369;DHT22;18004;48.416;10.066;2023-09-19T05:45:40;15.80;99.90
31369;DHT22;18004;48.416;10.066;2023-09-19T05:48:14;15.80;99.90
31369;DHT22;18004;48.416;10.066;2023-09-19T05:50:41;15.90;99.90
31369;DHT22;18004;48.416;10.066;2023-09-19T05:53:07;15.90;99.90
31369;DHT22;18004;48.416;10.066;2023-09-19T05:55:33;15.90;99.90
31369;DHT22;18004;48.416;10.066;2023-09-19T05:57:59;15.90;99.90
31369;DHT22;18004;48.416;10.066;2023-09-19T06:00:25;16.00;99.90
31369;DHT22;18004;48.416;10.066;2023-09-19T06:02:53;15.90;99.90
31369;DHT22;18004;48.416;10.066;2023-09-19T06:05:20;15.90;99.90
31369;DHT22;18004;48.416;10.066;2023-09-19T06:07:46;15.90;99.90
31369;DHT22;18004;48.416;10.066;2023-09-19T06:10:12;15.90;99.90
31369;DHT22;18004;48.416;10.066;2023-09-19T06:12:42;15.90;99.90
31369;DHT22;18004;48.416;10.066;2023-09-19T06:15:14;15.90;99.90
31369;DHT22;18004;48.416;10.066;2023-09-19T06:17:52;15.90;99.90
31369;DHT22;18004;48.416;10.066;2023-09-19T06:20:21;15.90;99.90
31369;DHT22;18004;48.416;10.066;2023-09-19T06:22:49;15.90;99.90
31369;DHT22;18004;48.416;10.066;2023-09-19T06:25:16;15.90;99.90
31369;DHT22;18004;48.416;10.066;2023-09-19T06:27:45;16.00;99.90
31369;DHT22;18004;48.416;10.066;2023-09-19T06:30:11;16.10;99.90
31369;DHT22;18004;48.416;10.066;2023-09-19T06:32:38;16.20;99.90
31369;DHT22;18004;48.416;10.066;2023-09-19T06:35:05;16.20;99.90
31369;DHT22;18004;48.416;10.066;2023-09-19T06:37:34;16.20;99.90
31369;DHT22;18004;48.416;10.066;2023-09-19T06:40:09;16.30;99.90
31369;DHT22;18004;48.416;10.066;2023-09-19T06:42:44;16.30;99.90
31369;DHT22;18004;48.416;10.066;2023-09-19T06:45:11;16.20;99.90
31369;DHT22;18004;48.416;10.066;2023-09-19T06:47:39;16.20;99.90
31369;DHT22;18004;48.416;10.066;2023-09-19T06:50:05;16.20;99.90
31369;DHT22;18004;48.416;10.066;2023-09-19T06:52:34;16.20;99.90
31369;DHT22;18004;48.416;10.066;2023-09-19T06:55:00;16.20;99.90
31369;DHT22;18004;48.416;10.066;2023-09-19T06:57:28;16.30;99.90
31369;DHT22;18004;48.416;10.066;2023-09-19T06:59:56;16.30;99.90
31369;DHT22;18004;48.416;10.066;2023-09-19T07:02:22;16.40;99.90
31369;DHT22;18004;48.416;10.066;2023-09-19T07:04:47;16.50;99.90
31369;DHT22;18004;48.416;10.066;2023-09-19T07:07:15;16.60;99.90
31369;DHT22;18004;48.416;10.066;2023-09-19T07:09:41;16.70;99.90
31369;DHT22;18004;48.416;10.066;2023-09-19T07:12:08;16.70;99.90
31369;DHT22;18004;48.416;10.066;2023-09-19T07:14:33;16.80;99.90
31369;DHT22;18004;48.416;10.066;2023-09-19T07:16:59;16.80;99.90
31369;DHT22;18004;48.416;10.066;2023-09-19T07:19:29;16.80;99.90
31369;DHT22;18004;48.416;10.066;2023-09-19T07:21:55;16.90;99.90
31369;DHT22;18004;48.416;10.066;2023-09-19T07:24:21;17.00;99.90
31369;DHT22;18004;48.416;10.066;2023-09-19T07:26:49;17.10;99.90
31369;DHT22;18004;48.416;10.066;2023-09-19T07:29:15;17.20;99.90
31369;DHT22;18004;48.416;10.066;2023-09-19T07:31:41;17.30;99.90
31369;DHT22;18004;48.416;10.066;2023-09-19T07:34:07;17.40;99.90
31369;DHT22;18004;48.416;10.066;2023-09-19T07:36:34;17.40;99.90
31369;DHT22;18004;48.416;10.066;2023-09-19T07:39:00;17.50;99.90
31369;DHT22;18004;48.416;10.066;2023-09-19T07:41:26;17.50;99.90
31369;DHT22;18004;48.416;10.066;2023-09-19T07:43:52;17.60;99.90
31369;DHT22;18004;48.416;10.066;2023-09-19T07:46:18;17.60;99.90
31369;DHT22;18004;48.416;10.066;2023-09-19T07:48:44;17.60;99.90
31369;DHT22;18004;48.416;10.066;2023-09-19T07:51:14;17.60;99.90
31369;DHT22;18004;48.416;10.066;2023-09-19T07:53:41;17.60;99.90
31369;DHT22;18004;48.416;10.066;2023-09-19T07:56:09;17.70;99.90
31369;DHT22;18004;48.416;10.066;2023-09-19T07:58:36;17.80;99.90
31369;DHT22;18004;48.416;10.066;2023-09-19T08:01:08;17.90;99.90
31369;DHT22;18004;48.416;10.066;2023-09-19T08:03:35;17.90;99.90
31369;DHT22;18004;48.416;10.066;2023-09-19T08:06:06;17.90;99.90
31369;DHT22;18004;48.416;10.066;2023-09-19T08:08:33;17.90;99.90
31369;DHT22;18004;48.416;10.066;2023-09-19T08:11:07;18.00;99.90
31369;DHT22;18004;48.416;10.066;2023-09-19T08:13:41;18.00;99.90
31369;DHT22;18004;48.416;10.066;2023-09-19T08:16:10;18.10;99.90
31369;DHT22;18004;48.416;10.066;2023-09-19T08:18:36;18.10;99.90
31369;DHT22;18004;48.416;10.066;2023-09-19T08:21:05;18.20;99.90
31369;DHT22;18004;48.416;10.066;2023-09-19T08:23:37;18.30;99.90
31369;DHT22;18004;48.416;10.066;2023-09-19T08:26:04;18.30;99.90
31369;DHT22;18004;48.416;10.066;2023-09-19T08:28:36;18.40;99.90
31369;DHT22;18004;48.416;10.066;2023-09-19T08:31:03;18.50;99.90
31369;DHT22;18004;48.416;10.066;2023-09-19T08:33:35;18.70;99.90
31369;DHT22;18004;48.416;10.066;2023-09-19T08:36:02;18.90;99.90
31369;DHT22;18004;48.416;10.066;2023-09-19T08:38:31;19.00;99.90
31369;DHT22;18004;48.416;10.066;2023-09-19T08:40:59;19.00;99.90
31369;DHT22;18004;48.416;10.066;2023-09-19T08:43:28;19.10;99.90
31369;DHT22;18004;48.416;10.066;2023-09-19T08:46:11;19.10;99.90
31369;DHT22;18004;48.416;10.066;2023-09-19T08:48:45;19.10;99.90
31369;DHT22;18004;48.416;10.066;2023-09-19T08:51:21;19.00;99.90
31369;DHT22;18004;48.416;10.066;2023-09-19T08:54:25;19.00;99.90
31369;DHT22;18004;48.416;10.066;2023-09-19T08:56:45;18.90;99.90
31369;DHT22;18004;48.416;10.066;2023-09-19T08:59:13;18.80;99.90
31369;DHT22;18004;48.416;10.066;2023-09-19T09:01:40;18.70;99.90
31369;DHT22;18004;48.416;10.066;2023-09-19T09:04:08;18.70;99.90
31369;DHT22;18004;48.416;10.066;2023-09-19T09:06:34;18.70;99.90
31369;DHT22;18004;48.416;10.066;2023-09-19T09:09:02;18.60;99.90
31369;DHT22;18004;48.416;10.066;2023-09-19T09:11:29;18.70;99.90
31369;DHT22;18004;48.416;10.066;2023-09-19T09:13:58;19.00;99.90
31369;DHT22;18004;48.416;10.066;2023-09-19T09:16:24;19.10;99.90
31369;DHT22;18004;48.416;10.066;2023-09-19T09:18:51;19.00;99.90
31369;DHT22;18004;48.416;10.066;2023-09-19T09:21:24;19.00;99.90
31369;DHT22;18004;48.416;10.066;2023-09-19T09:23:50;18.90;99.90
31369;DHT22;18004;48.416;10.066;2023-09-19T09:26:41;18.90;99.90
31369;DHT22;18004;48.416;10.066;2023-09-19T09:29:08;18.80;99.90
31369;DHT22;18004;48.416;10.066;2023-09-19T09:31:34;18.70;99.90
31369;DHT22;18004;48.416;10.066;2023-09-19T09:34:00;18.70;99.90
31369;DHT22;18004;48.416;10.066;2023-09-19T09:36:39;18.80;99.90
31369;DHT22;18004;48.416;10.066;2023-09-19T09:39:07;18.90;99.90
31369;DHT22;18004;48.416;10.066;2023-09-19T09:41:43;19.00;99.90
31369;DHT22;18004;48.416;10.066;2023-09-19T09:44:17;19.10;99.90
31369;DHT22;18004;48.416;10.066;2023-09-19T09:46:47;19.10;99.90
31369;DHT22;18004;48.416;10.066;2023-09-19T09:49:26;19.30;99.90
31369;DHT22;18004;48.416;10.066;2023-09-19T09:54:26;19.30;99.90
31369;DHT22;18004;48.416;10.066;2023-09-19T09:57:06;19.30;99.90
31369;DHT22;18004;48.416;10.066;2023-09-19T09:59:52;19.30;99.90
31369;DHT22;18004;48.416;10.066;2023-09-19T10:02:27;19.30;99.90
31369;DHT22;18004;48.416;10.066;2023-09-19T10:05:12;19.10;99.90
31369;DHT22;18004;48.416;10.066;2023-09-19T10:07:44;19.20;99.90
31369;DHT22;18004;48.416;10.066;2023-09-19T10:10:35;19.20;99.90
31369;DHT22;18004;48.416;10.066;2023-09-19T10:13:12;19.40;99.90
31369;DHT22;18004;48.416;10.066;2023-09-19T10:15:39;19.40;99.90
31369;DHT22;18004;48.416;10.066;2023-09-19T10:18:11;19.50;99.90
31369;DHT22;18004;48.416;10.066;2023-09-19T10:20:43;19.60;99.90
31369;DHT22;18004;48.416;10.066;2023-09-19T10:23:12;19.70;99.80
31369;DHT22;18004;48.416;10.066;2023-09-19T10:25:48;19.80;99.90
31369;DHT22;18004;48.416;10.066;2023-09-19T10:28:16;19.70;99.90
31369;DHT22;18004;48.416;10.066;2023-09-19T10:30:43;19.60;99.90
31369;DHT22;18004;48.416;10.066;2023-09-19T10:33:14;19.60;99.40
31369;DHT22;18004;48.416;10.066;2023-09-19T10:35:46;19.70;94.90
31369;DHT22;18004;48.416;10.066;2023-09-19T10:38:14;19.60;94.80
31369;DHT22;18004;48.416;10.066;2023-09-19T10:40:40;19.90;95.10
31369;DHT22;18004;48.416;10.066;2023-09-19T10:43:18;20.00;91.70
31369;DHT22;18004;48.416;10.066;2023-09-19T10:45:45;20.30;91.60
31369;DHT22;18004;48.416;10.066;2023-09-19T10:48:12;20.50;88.90
31369;DHT22;18004;48.416;10.066;2023-09-19T10:53:51;21.00;89.40
31369;DHT22;18004;48.416;10.066;2023-09-19T10:56:21;21.20;72.30
31369;DHT22;18004;48.416;10.066;2023-09-19T10:58:48;21.30;75.00
31369;DHT22;18004;48.416;10.066;2023-09-19T11:01:14;21.40;66.60
31369;DHT22;18004;48.416;10.066;2023-09-19T11:03:41;21.30;58.50
31369;DHT22;18004;48.416;10.066;2023-09-19T11:08:55;21.40;66.60
31369;DHT22;18004;48.416;10.066;2023-09-19T11:11:51;21.50;62.20
31369;DHT22;18004;48.416;10.066;2023-09-19T11:30:44;21.50;47.30
31369;DHT22;18004;48.416;10.066;2023-09-19T11:33:19;21.60;46.50
31369;DHT22;18004;48.416;10.066;2023-09-19T11:36:18;21.60;48.50
31369;DHT22;18004;48.416;10.066;2023-09-19T11:39:01;21.30;46.60
31369;DHT22;18004;48.416;10.066;2023-09-19T11:41:38;21.00;50.10
31369;DHT22;18004;48.416;10.066;2023-09-19T11:46:52;21.50;53.30
31369;DHT22;18004;48.416;10.066;2023-09-19T11:49:19;21.80;47.50
31369;DHT22;18004;48.416;10.066;2023-09-19T11:51:52;21.90;44.80
31369;DHT22;18004;48.416;10.066;2023-09-19T11:54:18;22.20;44.40
31369;DHT22;18004;48.416;10.066;2023-09-19T11:56:53;22.50;46.00
31369;DHT22;18004;48.416;10.066;2023-09-19T11:59:30;22.70;40.30
31369;DHT22;18004;48.416;10.066;2023-09-19T12:02:04;22.70;32.10
31369;DHT22;18004;48.416;10.066;2023-09-19T12:04:38;22.90;33.40
31369;DHT22;18004;48.416;10.066;2023-09-19T12:07:12;22.90;27.60
31369;DHT22;18004;48.416;10.066;2023-09-19T12:09:48;22.90;27.30
31369;DHT22;18004;48.416;10.066;2023-09-19T12:12:28;23.10;29.30
31369;DHT22;18004;48.416;10.066;2023-09-19T12:14:56;22.80;24.80
31369;DHT22;18004;48.416;10.066;2023-09-19T12:17:37;22.80;24.40
31369;DHT22;18004;48.416;10.066;2023-09-19T12:20:05;23.00;24.90
31369;DHT22;18004;48.416;10.066;2023-09-19T12:22:41;23.10;24.90
31369;DHT22;18004;48.416;10.066;2023-09-19T12:25:09;22.70;26.10
31369;DHT22;18004;48.416;10.066;2023-09-19T12:27:47;22.50;27.40
31369;DHT22;18004;48.416;10.066;2023-09-19T12:30:16;22.60;29.20
31369;DHT22;18004;48.416;10.066;2023-09-19T12:32:48;22.80;29.40
31369;DHT22;18004;48.416;10.066;2023-09-19T12:35:28;22.90;23.00
31369;DHT22;18004;48.416;10.066;2023-09-19T12:37:56;22.90;26.20
31369;DHT22;18004;48.416;10.066;2023-09-19T12:40:23;22.90;25.50
31369;DHT22;18004;48.416;10.066;2023-09-19T12:42:56;22.90;26.70
31369;DHT22;18004;48.416;10.066;2023-09-19T12:45:24;23.10;25.80
31369;DHT22;18004;48.416;10.066;2023-09-19T12:48:21;23.00;25.60
31369;DHT22;18004;48.416;10.066;2023-09-19T12:51:15;23.00;27.20
31369;DHT22;18004;48.416;10.066;2023-09-19T12:53:44;23.10;26.20
31369;DHT22;18004;48.416;10.066;2023-09-19T12:56:17;22.60;24.60
31369;DHT22;18004;48.416;10.066;2023-09-19T12:58:57;22.50;26.10
31369;DHT22;18004;48.416;10.066;2023-09-19T13:01:28;22.80;23.10
31369;DHT22;18004;48.416;10.066;2023-09-19T13:04:30;23.00;21.10
31369;DHT22;18004;48.416;10.066;2023-09-19T13:06:57;23.20;23.00
31369;DHT22;18004;48.416;10.066;2023-09-19T13:09:27;23.30;20.60
31369;DHT22;18004;48.416;10.066;2023-09-19T13:12:05;23.40;18.90
31369;DHT22;18004;48.416;10.066;2023-09-19T13:15:13;23.40;19.10
31369;DHT22;18004;48.416;10.066;2023-09-19T13:17:46;23.40;16.60
31369;DHT22;18004;48.416;10.066;2023-09-19T13:20:26;23.10;15.50
31369;DHT22;18004;48.416;10.066;2023-09-19T13:22:58;22.90;15.30
31369;DHT22;18004;48.416;10.066;2023-09-19T13:25:34;22.90;17.80
31369;DHT22;18004;48.416;10.066;2023-09-19T13:28:00;23.20;18.20
31369;DHT22;18004;48.416;10.066;2023-09-19T13:30:30;23.30;15.00
31369;DHT22;18004;48.416;10.066;2023-09-19T13:33:12;23.10;18.70
31369;DHT22;18004;48.416;10.066;2023-09-19T13:35:44;23.20;17.30
31369;DHT22;18004;48.416;10.066;2023-09-19T13:38:11;23.30;16.00
31369;DHT22;18004;48.416;10.066;2023-09-19T13:40:40;23.10;15.10
31369;DHT22;18004;48.416;10.066;2023-09-19T13:43:07;23.10;15.60
31369;DHT22;18004;48.416;10.066;2023-09-19T13:45:34;23.00;15.40
31369;DHT22;18004;48.416;10.066;2023-09-19T13:47:59;22.80;18.40
31369;DHT22;18004;48.416;10.066;2023-09-19T13:50:25;22.80;18.40
31369;DHT22;18004;48.416;10.066;2023-09-19T13:52:54;22.90;19.40
31369;DHT22;18004;48.416;10.066;2023-09-19T13:55:20;23.00;18.60
31369;DHT22;18004;48.416;10.066;2023-09-19T13:57:47;22.90;16.90
31369;DHT22;18004;48.416;10.066;2023-09-19T14:00:16;23.10;17.50
31369;DHT22;18004;48.416;10.066;2023-09-19T14:02:43;23.20;17.10
31369;DHT22;18004;48.416;10.066;2023-09-19T14:05:10;23.00;16.60
31369;DHT22;18004;48.416;10.066;2023-09-19T14:07:43;22.90;17.30
31369;DHT22;18004;48.416;10.066;2023-09-19T14:10:13;22.80;18.40
31369;DHT22;18004;48.416;10.066;2023-09-19T14:12:39;22.80;17.60
31369;DHT22;18004;48.416;10.066;2023-09-19T14:15:09;22.80;17.30
31369;DHT22;18004;48.416;10.066;2023-09-19T14:17:36;22.80;18.00
31369;DHT22;18004;48.416;10.066;2023-09-19T14:20:02;23.10;18.70
31369;DHT22;18004;48.416;10.066;2023-09-19T14:22:28;23.30;22.00
31369;DHT22;18004;48.416;10.066;2023-09-19T14:24:53;23.40;19.30
31369;DHT22;18004;48.416;10.066;2023-09-19T14:27:19;23.30;18.80
31369;DHT22;18004;48.416;10.066;2023-09-19T14:29:45;23.30;20.30
31369;DHT22;18004;48.416;10.066;2023-09-19T14:32:11;23.30;19.70
31369;DHT22;18004;48.416;10.066;2023-09-19T14:34:37;23.20;18.70
31369;DHT22;18004;48.416;10.066;2023-09-19T14:37:08;23.20;17.10
31369;DHT22;18004;48.416;10.066;2023-09-19T14:39:33;23.30;18.80
31369;DHT22;18004;48.416;10.066;2023-09-19T14:41:59;23.30;18.80
31369;DHT22;18004;48.416;10.066;2023-09-19T14:44:26;23.40;18.90
31369;DHT22;18004;48.416;10.066;2023-09-19T14:46:53;23.60;19.00
31369;DHT22;18004;48.416;10.066;2023-09-19T14:49:20;23.50;16.50
31369;DHT22;18004;48.416;10.066;2023-09-19T14:51:46;23.50;17.50
31369;DHT22;18004;48.416;10.066;2023-09-19T14:54:14;23.50;17.40
31369;DHT22;18004;48.416;10.066;2023-09-19T14:56:42;23.50;19.00
31369;DHT22;18004;48.416;10.066;2023-09-19T14:59:08;23.50;20.10
31369;DHT22;18004;48.416;10.066;2023-09-19T15:01:36;23.40;19.20
31369;DHT22;18004;48.416;10.066;2023-09-19T15:04:03;23.20;16.40
31369;DHT22;18004;48.416;10.066;2023-09-19T15:06:29;23.10;18.70
31369;DHT22;18004;48.416;10.066;2023-09-19T15:08:55;23.20;18.70
31369;DHT22;18004;48.416;10.066;2023-09-19T15:11:22;23.10;19.90
31369;DHT22;18004;48.416;10.066;2023-09-19T15:13:51;23.20;20.50
31369;DHT22;18004;48.416;10.066;2023-09-19T15:16:17;23.30;19.60
31369;DHT22;18004;48.416;10.066;2023-09-19T15:18:45;23.30;18.80
31369;DHT22;18004;48.416;10.066;2023-09-19T15:21:13;23.20;18.90
31369;DHT22;18004;48.416;10.066;2023-09-19T15:23:41;23.00;18.40
31369;DHT22;18004;48.416;10.066;2023-09-19T15:26:10;22.80;19.00
31369;DHT22;18004;48.416;10.066;2023-09-19T15:28:37;22.70;18.40
31369;DHT22;18004;48.416;10.066;2023-09-19T15:31:05;22.60;20.70
31369;DHT22;18004;48.416;10.066;2023-09-19T15:33:32;22.70;21.40
31369;DHT22;18004;48.416;10.066;2023-09-19T15:36:07;22.90;22.70
31369;DHT22;18004;48.416;10.066;2023-09-19T15:39:05;22.80;20.70
31369;DHT22;18004;48.416;10.066;2023-09-19T15:41:38;22.90;21.90
31369;DHT22;18004;48.416;10.066;2023-09-19T15:44:10;22.70;21.90
31369;DHT22;18004;48.416;10.066;2023-09-19T15:46:36;22.80;22.50
31369;DHT22;18004;48.416;10.066;2023-09-19T15:49:03;22.80;22.00
31369;DHT22;18004;48.416;10.066;2023-09-19T15:51:29;22.80;23.50
31369;DHT22;18004;48.416;10.066;2023-09-19T15:53:55;22.80;22.10
31369;DHT22;18004;48.416;10.066;2023-09-19T15:56:22;22.70;21.50
31369;DHT22;18004;48.416;10.066;2023-09-19T15:58:51;22.60;21.70
31369;DHT22;18004;48.416;10.066;2023-09-19T16:01:17;22.60;21.20
31369;DHT22;18004;48.416;10.066;2023-09-19T16:03:52;22.50;22.10
31369;DHT22;18004;48.416;10.066;2023-09-19T16:06:20;22.40;21.60
31369;DHT22;18004;48.416;10.066;2023-09-19T16:08:49;22.50;23.30
31369;DHT22;18004;48.416;10.066;2023-09-19T16:11:16;22.40;24.70